sensor_id;sensor_type;location;lat;lon;timestamp;temperature;humidity
52509;DHT22;38420;53.150;6.370;2022-11-15T00:00:46;7.80;99.90
52509;DHT22;38420;53.150;6.370;2022-11-15T00:03:18;7.70;99.90
52509;DHT22;38420;53.150;6.370;2022-11-15T00:05:44;7.70;99.90
52509;DHT22;38420;53.150;6.370;2022-11-15T00:08:10;7.20;99.90
52509;DHT22;38420;53.150;6.370;2022-11-15T00:10:37;7.20;99.90
52509;DHT22;38420;53.150;6.370;2022-11-15T00:13:12;7.20;99.90
52509;DHT22;38420;53.150;6.370;2022-11-15T00:15:39;7.40;99.90
52509;DHT22;38420;53.150;6.370;2022-11-15T00:18:06;7.40;99.90
52509;DHT22;38420;53.150;6.370;2022-11-15T00:20:36;7.30;99.90
52509;DHT22;38420;53.150;6.370;2022-11-15T00:23:03;7.30;99.90
52509;DHT22;38420;53.150;6.370;2022-11-15T00:25:29;7.00;99.90
52509;DHT22;38420;53.150;6.370;2022-11-15T00:27:56;7.00;99.90
52509;DHT22;38420;53.150;6.370;2022-11-15T00:30:22;7.30;99.90
52509;DHT22;38420;53.150;6.370;2022-11-15T00:32:48;7.30;99.90
52509;DHT22;38420;53.150;6.370;2022-11-15T00:35:13;7.00;99.90
52509;DHT22;38420;53.150;6.370;2022-11-15T00:37:39;7.40;99.90
52509;DHT22;38420;53.150;6.370;2022-11-15T00:40:05;7.10;99.90
52509;DHT22;38420;53.150;6.370;2022-11-15T00:42:31;7.10;99.90
52509;DHT22;38420;53.150;6.370;2022-11-15T00:44:56;7.10;99.90
52509;DHT22;38420;53.150;6.370;2022-11-15T00:47:22;7.30;99.90
52509;DHT22;38420;53.150;6.370;2022-11-15T00:49:47;7.10;99.90
52509;DHT22;38420;53.150;6.370;2022-11-15T00:52:13;7.20;99.90
52509;DHT22;38420;53.150;6.370;2022-11-15T00:54:39;7.20;99.90
52509;DHT22;38420;53.150;6.370;2022-11-15T00:57:04;7.40;99.90
52509;DHT22;38420;53.150;6.370;2022-11-15T00:59:30;7.40;99.90
52509;DHT22;38420;53.150;6.370;2022-11-15T01:01:55;7.60;99.90
52509;DHT22;38420;53.150;6.370;2022-11-15T01:04:21;7.60;99.90
52509;DHT22;38420;53.150;6.370;2022-11-15T01:06:47;7.50;99.90
52509;DHT22;38420;53.150;6.370;2022-11-15T01:09:13;7.40;99.90
52509;DHT22;38420;53.150;6.370;2022-11-15T01:11:39;7.60;99.90
52509;DHT22;38420;53.150;6.370;2022-11-15T01:14:04;7.60;99.90
52509;DHT22;38420;53.150;6.370;2022-11-15T01:16:30;7.30;99.90
52509;DHT22;38420;53.150;6.370;2022-11-15T01:18:55;7.70;99.90
52509;DHT22;38420;53.150;6.370;2022-11-15T01:21:21;7.60;99.90
52509;DHT22;38420;53.150;6.370;2022-11-15T01:23:47;7.50;99.90
52509;DHT22;38420;53.150;6.370;2022-11-15T01:26:14;7.40;99.90
52509;DHT22;38420;53.150;6.370;2022-11-15T01:28:41;7.60;99.90
52509;DHT22;38420;53.150;6.370;2022-11-15T01:31:14;7.40;99.90
52509;DHT22;38420;53.150;6.370;2022-11-15T01:33:40;7.60;99.90
52509;DHT22;38420;53.150;6.370;2022-11-15T01:36:08;7.60;99.90
52509;DHT22;38420;53.150;6.370;2022-11-15T01:38:35;7.40;99.90
52509;DHT22;38420;53.150;6.370;2022-11-15T01:41:00;7.40;99.90
52509;DHT22;38420;53.150;6.370;2022-11-15T01:43:30;7.30;99.90
52509;DHT22;38420;53.150;6.370;2022-11-15T01:46:02;7.40;99.90
52509;DHT22;38420;53.150;6.370;2022-11-15T01:48:33;7.40;99.90
52509;DHT22;38420;53.150;6.370;2022-11-15T01:51:01;7.20;99.90
52509;DHT22;38420;53.150;6.370;2022-11-15T01:53:29;7.40;99.90
52509;DHT22;38420;53.150;6.370;2022-11-15T01:55:58;7.20;99.90
52509;DHT22;38420;53.150;6.370;2022-11-15T01:58:23;7.30;99.90
52509;DHT22;38420;53.150;6.370;2022-11-15T02:00:50;7.40;99.90
52509;DHT22;38420;53.150;6.370;2022-11-15T02:03:16;7.40;99.90
52509;DHT22;38420;53.150;6.370;2022-11-15T02:05:43;7.10;99.90
52509;DHT22;38420;53.150;6.370;2022-11-15T02:08:10;7.10;99.90
52509;DHT22;38420;53.150;6.370;2022-11-15T02:10:47;7.40;99.90
52509;DHT22;38420;53.150;6.370;2022-11-15T02:13:15;7.10;99.90
52509;DHT22;38420;53.150;6.370;2022-11-15T02:18:37;7.40;99.90
52509;DHT22;38420;53.150;6.370;2022-11-15T02:21:42;7.30;99.90
52509;DHT22;38420;53.150;6.370;2022-11-15T02:29:22;7.30;99.90
52509;DHT22;38420;53.150;6.370;2022-11-15T02:40:39;7.00;99.90
52509;DHT22;38420;53.150;6.370;2022-11-15T02:43:12;7.10;99.90
52509;DHT22;38420;53.150;6.370;2022-11-15T02:46:07;7.00;99.90
52509;DHT22;38420;53.150;6.370;2022-11-15T02:48:35;7.20;99.90
52509;DHT22;38420;53.150;6.370;2022-11-15T02:51:01;7.20;99.90
52509;DHT22;38420;53.150;6.370;2022-11-15T02:53:27;7.30;99.90
52509;DHT22;38420;53.150;6.370;2022-11-15T02:55:54;7.00;99.90
52509;DHT22;38420;53.150;6.370;2022-11-15T03:06:50;7.10;99.90
52509;DHT22;38420;53.150;6.370;2022-11-15T03:09:35;7.30;99.90
52509;DHT22;38420;53.150;6.370;2022-11-15T03:12:11;7.40;99.90
52509;DHT22;38420;53.150;6.370;2022-11-15T03:15:05;7.00;99.90
52509;DHT22;38420;53.150;6.370;2022-11-15T03:17:33;7.30;99.90
52509;DHT22;38420;53.150;6.370;2022-11-15T03:20:04;7.10;99.90
52509;DHT22;38420;53.150;6.370;2022-11-15T03:22:35;7.30;99.90
52509;DHT22;38420;53.150;6.370;2022-11-15T03:25:05;7.30;99.90
52509;DHT22;38420;53.150;6.370;2022-11-15T03:27:36;7.20;99.90
52509;DHT22;38420;53.150;6.370;2022-11-15T03:30:04;7.20;99.90
52509;DHT22;38420;53.150;6.370;2022-11-15T03:32:34;7.20;99.90
52509;DHT22;38420;53.150;6.370;2022-11-15T03:35:06;7.40;99.90
52509;DHT22;38420;53.150;6.370;2022-11-15T03:37:41;7.40;99.90
52509;DHT22;38420;53.150;6.370;2022-11-15T03:40:09;7.50;99.90
52509;DHT22;38420;53.150;6.370;2022-11-15T03:43:23;7.50;99.90
52509;DHT22;38420;53.150;6.370;2022-11-15T03:45:54;7.20;99.90
52509;DHT22;38420;53.150;6.370;2022-11-15T03:48:24;7.30;99.90
52509;DHT22;38420;53.150;6.370;2022-11-15T03:50:51;7.30;99.90
52509;DHT22;38420;53.150;6.370;2022-11-15T03:53:17;7.30;99.90
52509;DHT22;38420;53.150;6.370;2022-11-15T03:55:43;7.60;99.90
52509;DHT22;38420;53.150;6.370;2022-11-15T03:58:09;7.30;99.90
52509;DHT22;38420;53.150;6.370;2022-11-15T04:00:34;7.60;99.90
52509;DHT22;38420;53.150;6.370;2022-11-15T04:03:00;7.30;99.90
52509;DHT22;38420;53.150;6.370;2022-11-15T04:05:26;7.30;99.90
52509;DHT22;38420;53.150;6.370;2022-11-15T04:07:51;7.60;99.90
52509;DHT22;38420;53.150;6.370;2022-11-15T04:10:17;7.30;99.90
52509;DHT22;38420;53.150;6.370;2022-11-15T04:12:44;7.30;99.90
52509;DHT22;38420;53.150;6.370;2022-11-15T04:15:14;7.40;99.90
52509;DHT22;38420;53.150;6.370;2022-11-15T04:17:47;7.40;99.90
52509;DHT22;38420;53.150;6.370;2022-11-15T04:20:25;7.80;99.90
52509;DHT22;38420;53.150;6.370;2022-11-15T04:23:23;7.40;99.90
52509;DHT22;38420;53.150;6.370;2022-11-15T04:26:17;7.60;99.90
52509;DHT22;38420;53.150;6.370;2022-11-15T04:28:43;7.80;99.90
52509;DHT22;38420;53.150;6.370;2022-11-15T04:31:28;7.80;99.90
52509;DHT22;38420;53.150;6.370;2022-11-15T04:33:54;7.70;99.90
52509;DHT22;38420;53.150;6.370;2022-11-15T04:36:20;7.50;99.90
52509;DHT22;38420;53.150;6.370;2022-11-15T04:39:05;7.70;99.90
52509;DHT22;38420;53.150;6.370;2022-11-15T04:41:31;7.90;99.90
52509;DHT22;38420;53.150;6.370;2022-11-15T04:43:56;7.50;99.90
52509;DHT22;38420;53.150;6.370;2022-11-15T04:46:22;7.50;99.90
52509;DHT22;38420;53.150;6.370;2022-11-15T04:48:49;8.00;99.90
52509;DHT22;38420;53.150;6.370;2022-11-15T04:51:14;7.40;99.90
52509;DHT22;38420;53.150;6.370;2022-11-15T04:53:40;7.90;99.90
52509;DHT22;38420;53.150;6.370;2022-11-15T04:56:06;7.80;99.90
52509;DHT22;38420;53.150;6.370;2022-11-15T04:58:31;7.70;99.90
52509;DHT22;38420;53.150;6.370;2022-11-15T05:00:57;7.60;99.90
52509;DHT22;38420;53.150;6.370;2022-11-15T05:03:22;7.50;99.90
52509;DHT22;38420;53.150;6.370;2022-11-15T05:06:07;7.60;99.90
52509;DHT22;38420;53.150;6.370;2022-11-15T05:08:32;7.80;99.90
52509;DHT22;38420;53.150;6.370;2022-11-15T05:10:58;8.10;99.90
52509;DHT22;38420;53.150;6.370;2022-11-15T05:13:24;7.60;99.90
52509;DHT22;38420;53.150;6.370;2022-11-15T05:15:49;8.20;99.90
52509;DHT22;38420;53.150;6.370;2022-11-15T05:18:15;7.80;99.90
52509;DHT22;38420;53.150;6.370;2022-11-15T05:20:41;7.90;99.90
52509;DHT22;38420;53.150;6.370;2022-11-15T05:23:06;7.90;99.90
52509;DHT22;38420;53.150;6.370;2022-11-15T05:25:32;8.20;99.90
52509;DHT22;38420;53.150;6.370;2022-11-15T05:27:57;7.80;99.90
52509;DHT22;38420;53.150;6.370;2022-11-15T05:30:23;7.90;99.90
52509;DHT22;38420;53.150;6.370;2022-11-15T05:32:50;8.00;99.90
52509;DHT22;38420;53.150;6.370;2022-11-15T05:35:25;8.20;99.90
52509;DHT22;38420;53.150;6.370;2022-11-15T05:37:52;8.40;99.90
52509;DHT22;38420;53.150;6.370;2022-11-15T05:40:18;8.30;99.90
52509;DHT22;38420;53.150;6.370;2022-11-15T05:42:44;8.20;99.90
52509;DHT22;38420;53.150;6.370;2022-11-15T05:45:11;8.70;99.90
52509;DHT22;38420;53.150;6.370;2022-11-15T05:47:37;8.10;99.90
52509;DHT22;38420;53.150;6.370;2022-11-15T05:50:04;8.60;99.90
52509;DHT22;38420;53.150;6.370;2022-11-15T05:52:31;8.20;99.90
52509;DHT22;38420;53.150;6.370;2022-11-15T05:54:59;8.20;99.90
52509;DHT22;38420;53.150;6.370;2022-11-15T05:57:25;8.20;99.90
52509;DHT22;38420;53.150;6.370;2022-11-15T05:59:51;8.70;99.90
52509;DHT22;38420;53.150;6.370;2022-11-15T06:02:17;8.30;99.90
52509;DHT22;38420;53.150;6.370;2022-11-15T06:04:42;8.20;99.90
52509;DHT22;38420;53.150;6.370;2022-11-15T06:07:08;8.60;99.90
52509;DHT22;38420;53.150;6.370;2022-11-15T06:09:33;8.80;99.90
52509;DHT22;38420;53.150;6.370;2022-11-15T06:11:59;8.90;99.90
52509;DHT22;38420;53.150;6.370;2022-11-15T06:14:24;8.80;99.90
52509;DHT22;38420;53.150;6.370;2022-11-15T06:16:50;8.70;99.90
52509;DHT22;38420;53.150;6.370;2022-11-15T06:19:16;9.20;99.90
52509;DHT22;38420;53.150;6.370;2022-11-15T06:21:42;8.80;99.90
52509;DHT22;38420;53.150;6.370;2022-11-15T06:24:07;8.70;99.90
52509;DHT22;38420;53.150;6.370;2022-11-15T06:26:33;9.20;99.90
52509;DHT22;38420;53.150;6.370;2022-11-15T06:28:59;8.90;99.90
52509;DHT22;38420;53.150;6.370;2022-11-15T06:31:24;9.40;99.90
52509;DHT22;38420;53.150;6.370;2022-11-15T06:33:50;9.10;99.90
52509;DHT22;38420;53.150;6.370;2022-11-15T06:36:16;9.20;99.90
52509;DHT22;38420;53.150;6.370;2022-11-15T06:38:43;9.20;99.90
52509;DHT22;38420;53.150;6.370;2022-11-15T06:41:10;8.90;99.90
52509;DHT22;38420;53.150;6.370;2022-11-15T06:43:36;9.00;99.90
52509;DHT22;38420;53.150;6.370;2022-11-15T06:46:03;9.00;99.90
52509;DHT22;38420;53.150;6.370;2022-11-15T06:48:30;9.60;99.90
52509;DHT22;38420;53.150;6.370;2022-11-15T06:50:57;9.30;99.90
52509;DHT22;38420;53.150;6.370;2022-11-15T06:53:24;9.60;99.90
52509;DHT22;38420;53.150;6.370;2022-11-15T06:55:50;9.10;99.90
52509;DHT22;38420;53.150;6.370;2022-11-15T06:58:16;9.70;99.90
52509;DHT22;38420;53.150;6.370;2022-11-15T07:00:42;9.70;99.90
52509;DHT22;38420;53.150;6.370;2022-11-15T07:03:08;9.50;99.90
52509;DHT22;38420;53.150;6.370;2022-11-15T07:05:34;9.70;99.90
52509;DHT22;38420;53.150;6.370;2022-11-15T07:08:00;9.20;99.90
52509;DHT22;38420;53.150;6.370;2022-11-15T07:10:26;9.90;99.90
52509;DHT22;38420;53.150;6.370;2022-11-15T07:12:52;9.70;99.90
52509;DHT22;38420;53.150;6.370;2022-11-15T07:15:20;9.20;99.90
52509;DHT22;38420;53.150;6.370;2022-11-15T07:17:46;9.80;99.90
52509;DHT22;38420;53.150;6.370;2022-11-15T07:20:13;9.50;99.90
52509;DHT22;38420;53.150;6.370;2022-11-15T07:22:40;9.90;99.90
52509;DHT22;38420;53.150;6.370;2022-11-15T07:25:06;9.40;99.90
52509;DHT22;38420;53.150;6.370;2022-11-15T07:27:32;9.50;99.90
52509;DHT22;38420;53.150;6.370;2022-11-15T07:29:58;9.90;99.90
52509;DHT22;38420;53.150;6.370;2022-11-15T07:32:23;9.60;99.90
52509;DHT22;38420;53.150;6.370;2022-11-15T07:34:49;10.20;99.90
52509;DHT22;38420;53.150;6.370;2022-11-15T07:37:14;9.50;99.90
52509;DHT22;38420;53.150;6.370;2022-11-15T07:39:40;10.30;99.90
52509;DHT22;38420;53.150;6.370;2022-11-15T07:42:06;9.60;99.90
52509;DHT22;38420;53.150;6.370;2022-11-15T07:45:04;9.60;99.90
52509;DHT22;38420;53.150;6.370;2022-11-15T07:47:31;10.20;99.90
52509;DHT22;38420;53.150;6.370;2022-11-15T07:49:56;9.60;99.90
52509;DHT22;38420;53.150;6.370;2022-11-15T07:52:22;9.60;99.90
52509;DHT22;38420;53.150;6.370;2022-11-15T07:54:47;9.90;99.90
52509;DHT22;38420;53.150;6.370;2022-11-15T07:57:13;10.20;99.90
52509;DHT22;38420;53.150;6.370;2022-11-15T07:59:38;10.10;99.90
52509;DHT22;38420;53.150;6.370;2022-11-15T08:02:04;9.90;99.90
52509;DHT22;38420;53.150;6.370;2022-11-15T08:04:29;9.60;99.90
52509;DHT22;38420;53.150;6.370;2022-11-15T08:06:55;9.90;99.90
52509;DHT22;38420;53.150;6.370;2022-11-15T08:09:20;10.40;99.90
52509;DHT22;38420;53.150;6.370;2022-11-15T08:11:46;10.10;99.90
52509;DHT22;38420;53.150;6.370;2022-11-15T08:14:13;9.70;99.90
52509;DHT22;38420;53.150;6.370;2022-11-15T08:16:38;10.30;99.90
52509;DHT22;38420;53.150;6.370;2022-11-15T08:19:04;9.90;99.90
52509;DHT22;38420;53.150;6.370;2022-11-15T08:21:30;9.90;99.90
52509;DHT22;38420;53.150;6.370;2022-11-15T08:23:55;10.80;99.90
52509;DHT22;38420;53.150;6.370;2022-11-15T08:26:21;10.70;99.90
52509;DHT22;38420;53.150;6.370;2022-11-15T08:28:47;10.00;99.90
52509;DHT22;38420;53.150;6.370;2022-11-15T08:31:14;10.30;99.90
52509;DHT22;38420;53.150;6.370;2022-11-15T08:33:42;10.60;99.90
52509;DHT22;38420;53.150;6.370;2022-11-15T08:36:13;10.10;99.90
52509;DHT22;38420;53.150;6.370;2022-11-15T08:38:39;11.00;99.90
52509;DHT22;38420;53.150;6.370;2022-11-15T08:41:05;10.20;99.90
52509;DHT22;38420;53.150;6.370;2022-11-15T08:43:31;10.20;99.90
52509;DHT22;38420;53.150;6.370;2022-11-15T08:45:57;10.30;99.90
52509;DHT22;38420;53.150;6.370;2022-11-15T08:48:23;10.20;99.90
52509;DHT22;38420;53.150;6.370;2022-11-15T08:50:48;10.70;99.90
52509;DHT22;38420;53.150;6.370;2022-11-15T08:53:14;11.00;99.90
52509;DHT22;38420;53.150;6.370;2022-11-15T08:55:40;11.00;99.90
52509;DHT22;38420;53.150;6.370;2022-11-15T08:58:06;10.30;99.90
52509;DHT22;38420;53.150;6.370;2022-11-15T09:00:32;10.30;99.90
52509;DHT22;38420;53.150;6.370;2022-11-15T09:02:58;11.00;99.90
52509;DHT22;38420;53.150;6.370;2022-11-15T09:05:24;10.50;99.90
52509;DHT22;38420;53.150;6.370;2022-11-15T09:07:53;10.30;99.90
52509;DHT22;38420;53.150;6.370;2022-11-15T09:10:20;11.00;99.90
52509;DHT22;38420;53.150;6.370;2022-11-15T09:12:46;10.90;99.90
52509;DHT22;38420;53.150;6.370;2022-11-15T09:15:15;10.50;99.90
52509;DHT22;38420;53.150;6.370;2022-11-15T09:17:41;10.50;99.90
52509;DHT22;38420;53.150;6.370;2022-11-15T09:20:07;11.30;99.90
52509;DHT22;38420;53.150;6.370;2022-11-15T09:22:33;10.60;99.90
52509;DHT22;38420;53.150;6.370;2022-11-15T09:24:59;11.30;99.90
52509;DHT22;38420;53.150;6.370;2022-11-15T09:27:31;10.70;99.90
52509;DHT22;38420;53.150;6.370;2022-11-15T09:29:57;11.20;99.90
52509;DHT22;38420;53.150;6.370;2022-11-15T09:32:23;11.50;99.90
52509;DHT22;38420;53.150;6.370;2022-11-15T09:34:49;11.20;99.90
52509;DHT22;38420;53.150;6.370;2022-11-15T09:37:16;10.80;99.90
52509;DHT22;38420;53.150;6.370;2022-11-15T09:39:41;11.30;99.90
52509;DHT22;38420;53.150;6.370;2022-11-15T09:42:24;11.50;99.90
52509;DHT22;38420;53.150;6.370;2022-11-15T09:45:04;11.00;99.90
52509;DHT22;38420;53.150;6.370;2022-11-15T09:47:57;11.50;99.90
52509;DHT22;38420;53.150;6.370;2022-11-15T09:50:51;10.80;99.90
52509;DHT22;38420;53.150;6.370;2022-11-15T09:56:00;11.30;99.90
52509;DHT22;38420;53.150;6.370;2022-11-15T09:58:39;11.30;99.90
52509;DHT22;38420;53.150;6.370;2022-11-15T10:01:59;11.60;99.90
52509;DHT22;38420;53.150;6.370;2022-11-15T10:04:04;11.00;99.90
52509;DHT22;38420;53.150;6.370;2022-11-15T10:06:32;10.90;99.90
52509;DHT22;38420;53.150;6.370;2022-11-15T10:09:07;11.00;99.90
52509;DHT22;38420;53.150;6.370;2022-11-15T10:11:36;11.00;99.90
52509;DHT22;38420;53.150;6.370;2022-11-15T10:14:15;11.00;99.90
52509;DHT22;38420;53.150;6.370;2022-11-15T10:16:59;11.70;99.90
52509;DHT22;38420;53.150;6.370;2022-11-15T10:22:38;11.10;99.90
52509;DHT22;38420;53.150;6.370;2022-11-15T10:27:40;11.60;99.90
52509;DHT22;38420;53.150;6.370;2022-11-15T10:30:12;11.60;99.90
52509;DHT22;38420;53.150;6.370;2022-11-15T10:32:39;12.00;99.90
52509;DHT22;38420;53.150;6.370;2022-11-15T10:37:43;11.80;99.90
52509;DHT22;38420;53.150;6.370;2022-11-15T10:42:44;12.20;99.90
52509;DHT22;38420;53.150;6.370;2022-11-15T10:45:29;11.70;99.90
52509;DHT22;38420;53.150;6.370;2022-11-15T10:50:45;11.90;99.90
52509;DHT22;38420;53.150;6.370;2022-11-15T10:55:47;12.20;99.90
52509;DHT22;38420;53.150;6.370;2022-11-15T10:58:39;12.20;99.90
52509;DHT22;38420;53.150;6.370;2022-11-15T11:01:24;11.70;99.90
52509;DHT22;38420;53.150;6.370;2022-11-15T11:04:06;12.20;99.90
52509;DHT22;38420;53.150;6.370;2022-11-15T11:06:58;12.20;99.90
52509;DHT22;38420;53.150;6.370;2022-11-15T11:09:38;11.80;99.90
52509;DHT22;38420;53.150;6.370;2022-11-15T11:12:10;12.30;99.90
52509;DHT22;38420;53.150;6.370;2022-11-15T11:14:38;11.80;99.90
52509;DHT22;38420;53.150;6.370;2022-11-15T11:17:16;11.90;99.90
52509;DHT22;38420;53.150;6.370;2022-11-15T11:19:52;12.10;99.90
52509;DHT22;38420;53.150;6.370;2022-11-15T11:32:53;12.40;99.90
52509;DHT22;38420;53.150;6.370;2022-11-15T11:35:35;12.30;99.90
52509;DHT22;38420;53.150;6.370;2022-11-15T11:38:35;12.40;99.90
52509;DHT22;38420;53.150;6.370;2022-11-15T11:41:21;12.50;99.90
52509;DHT22;38420;53.150;6.370;2022-11-15T11:49:30;12.30;99.90
52509;DHT22;38420;53.150;6.370;2022-11-15T11:54:57;12.20;99.90
52509;DHT22;38420;53.150;6.370;2022-11-15T11:57:51;12.30;99.90
52509;DHT22;38420;53.150;6.370;2022-11-15T12:00:23;12.20;99.90
52509;DHT22;38420;53.150;6.370;2022-11-15T12:05:23;12.30;99.90
52509;DHT22;38420;53.150;6.370;2022-11-15T12:07:56;12.40;99.90
52509;DHT22;38420;53.150;6.370;2022-11-15T12:10:29;12.30;99.90
52509;DHT22;38420;53.150;6.370;2022-11-15T12:12:58;12.50;99.90
52509;DHT22;38420;53.150;6.370;2022-11-15T12:15:55;12.50;99.90
52509;DHT22;38420;53.150;6.370;2022-11-15T12:18:18;12.30;99.90
52509;DHT22;38420;53.150;6.370;2022-11-15T12:21:15;12.40;99.90
52509;DHT22;38420;53.150;6.370;2022-11-15T12:23:46;12.20;99.90
52509;DHT22;38420;53.150;6.370;2022-11-15T12:26:30;12.30;99.90
52509;DHT22;38420;53.150;6.370;2022-11-15T12:29:03;12.30;99.90
52509;DHT22;38420;53.150;6.370;2022-11-15T12:31:39;12.30;99.90
52509;DHT22;38420;53.150;6.370;2022-11-15T12:34:28;12.30;99.90
52509;DHT22;38420;53.150;6.370;2022-11-15T12:36:55;12.30;99.90
52509;DHT22;38420;53.150;6.370;2022-11-15T12:39:21;12.40;99.90
52509;DHT22;38420;53.150;6.370;2022-11-15T12:59:55;12.50;99.90
52509;DHT22;38420;53.150;6.370;2022-11-15T13:02:38;12.40;99.90
52509;DHT22;38420;53.150;6.370;2022-11-15T13:17:50;12.60;99.90
52509;DHT22;38420;53.150;6.370;2022-11-15T13:27:49;12.60;99.90
52509;DHT22;38420;53.150;6.370;2022-11-15T13:30:20;12.70;99.90
52509;DHT22;38420;53.150;6.370;2022-11-15T13:32:47;12.60;99.90
52509;DHT22;38420;53.150;6.370;2022-11-15T13:35:28;12.60;99.90
52509;DHT22;38420;53.150;6.370;2022-11-15T13:37:55;12.70;99.90
52509;DHT22;38420;53.150;6.370;2022-11-15T13:42:47;12.60;99.90
52509;DHT22;38420;53.150;6.370;2022-11-15T13:45:18;12.60;99.90
52509;DHT22;38420;53.150;6.370;2022-11-15T13:47:44;12.50;99.90
52509;DHT22;38420;53.150;6.370;2022-11-15T13:50:11;12.60;99.90
52509;DHT22;38420;53.150;6.370;2022-11-15T13:52:39;12.50;99.90
52509;DHT22;38420;53.150;6.370;2022-11-15T13:55:18;12.40;99.90
52509;DHT22;38420;53.150;6.370;2022-11-15T13:57:48;12.30;99.90
52509;DHT22;38420;53.150;6.370;2022-11-15T14:00:36;12.40;99.90
52509;DHT22;38420;53.150;6.370;2022-11-15T14:03:11;12.30;99.90
52509;DHT22;38420;53.150;6.370;2022-11-15T14:05:39;12.20;99.90
52509;DHT22;38420;53.150;6.370;2022-11-15T14:08:21;12.20;99.90
52509;DHT22;38420;53.150;6.370;2022-11-15T14:10:48;12.20;99.90
52509;DHT22;38420;53.150;6.370;2022-11-15T14:13:30;12.20;99.90
52509;DHT22;38420;53.150;6.370;2022-11-15T14:16:18;12.10;99.90
52509;DHT22;38420;53.150;6.370;2022-11-15T14:18:52;12.10;99.90
52509;DHT22;38420;53.150;6.370;2022-11-15T14:21:18;12.10;99.90
52509;DHT22;38420;53.150;6.370;2022-11-15T14:23:45;12.00;99.90
52509;DHT22;38420;53.150;6.370;2022-11-15T14:26:32;12.00;99.90
52509;DHT22;38420;53.150;6.370;2022-11-15T14:29:24;12.00;99.90
52509;DHT22;38420;53.150;6.370;2022-11-15T14:31:50;11.90;99.90
52509;DHT22;38420;53.150;6.370;2022-11-15T14:34:15;11.90;99.90
52509;DHT22;38420;53.150;6.370;2022-11-15T14:36:41;11.90;99.90
52509;DHT22;38420;53.150;6.370;2022-11-15T14:39:06;11.80;99.90
52509;DHT22;38420;53.150;6.370;2022-11-15T14:41:36;11.80;99.90
52509;DHT22;38420;53.150;6.370;2022-11-15T14:44:05;11.80;99.90
52509;DHT22;38420;53.150;6.370;2022-11-15T14:46:31;11.70;99.90
52509;DHT22;38420;53.150;6.370;2022-11-15T14:48:56;11.70;99.90
52509;DHT22;38420;53.150;6.370;2022-11-15T14:51:22;11.70;99.90
52509;DHT22;38420;53.150;6.370;2022-11-15T14:53:47;11.70;99.90
52509;DHT22;38420;53.150;6.370;2022-11-15T14:56:14;11.60;99.90
52509;DHT22;38420;53.150;6.370;2022-11-15T14:58:40;11.60;99.90
52509;DHT22;38420;53.150;6.370;2022-11-15T15:01:17;11.50;99.90
52509;DHT22;38420;53.150;6.370;2022-11-15T15:03:44;11.40;99.90
52509;DHT22;38420;53.150;6.370;2022-11-15T15:06:10;11.30;99.90
52509;DHT22;38420;53.150;6.370;2022-11-15T15:08:38;11.40;99.90
52509;DHT22;38420;53.150;6.370;2022-11-15T15:11:13;11.30;99.90
52509;DHT22;38420;53.150;6.370;2022-11-15T15:13:39;11.20;99.90
52509;DHT22;38420;53.150;6.370;2022-11-15T15:16:05;11.10;99.90
52509;DHT22;38420;53.150;6.370;2022-11-15T15:18:31;11.10;99.90
52509;DHT22;38420;53.150;6.370;2022-11-15T15:20:58;11.10;99.90
52509;DHT22;38420;53.150;6.370;2022-11-15T15:23:32;11.10;99.90
52509;DHT22;38420;53.150;6.370;2022-11-15T15:25:59;11.00;99.90
52509;DHT22;38420;53.150;6.370;2022-11-15T15:28:24;10.90;99.90
52509;DHT22;38420;53.150;6.370;2022-11-15T15:30:50;10.80;99.90
52509;DHT22;38420;53.150;6.370;2022-11-15T15:33:16;11.00;99.90
52509;DHT22;38420;53.150;6.370;2022-11-15T15:35:42;10.90;99.90
52509;DHT22;38420;53.150;6.370;2022-11-15T15:38:11;10.90;99.90
52509;DHT22;38420;53.150;6.370;2022-11-15T15:40:37;11.00;99.90
52509;DHT22;38420;53.150;6.370;2022-11-15T15:43:03;11.00;99.90
52509;DHT22;38420;53.150;6.370;2022-11-15T15:45:36;11.00;99.90
52509;DHT22;38420;53.150;6.370;2022-11-15T15:48:02;11.00;99.90
52509;DHT22;38420;53.150;6.370;2022-11-15T15:50:31;11.00;99.90
52509;DHT22;38420;53.150;6.370;2022-11-15T15:53:00;11.00;99.90
52509;DHT22;38420;53.150;6.370;2022-11-15T15:55:26;11.00;99.90
52509;DHT22;38420;53.150;6.370;2022-11-15T15:57:52;10.90;99.90
52509;DHT22;38420;53.150;6.370;2022-11-15T16:00:19;10.90;99.90
52509;DHT22;38420;53.150;6.370;2022-11-15T16:02:45;10.90;99.90
52509;DHT22;38420;53.150;6.370;2022-11-15T16:05:11;10.90;99.90
52509;DHT22;38420;53.150;6.370;2022-11-15T16:07:38;10.80;99.90
52509;DHT22;38420;53.150;6.370;2022-11-15T16:10:25;10.90;99.90
52509;DHT22;38420;53.150;6.370;2022-11-15T16:12:52;10.80;99.90
52509;DHT22;38420;53.150;6.370;2022-11-15T16:15:19;10.70;99.90
52509;DHT22;38420;53.150;6.370;2022-11-15T16:17:51;10.70;99.90
52509;DHT22;38420;53.150;6.370;2022-11-15T16:20:33;10.70;99.90
52509;DHT22;38420;53.150;6.370;2022-11-15T16:23:00;10.70;99.90
52509;DHT22;38420;53.150;6.370;2022-11-15T16:25:26;10.70;99.90
52509;DHT22;38420;53.150;6.370;2022-11-15T16:27:52;10.60;99.90
52509;DHT22;38420;53.150;6.370;2022-11-15T16:30:20;10.60;99.90
52509;DHT22;38420;53.150;6.370;2022-11-15T16:32:46;10.60;99.90
52509;DHT22;38420;53.150;6.370;2022-11-15T16:35:13;10.60;99.90
52509;DHT22;38420;53.150;6.370;2022-11-15T16:37:39;10.60;99.90
52509;DHT22;38420;53.150;6.370;2022-11-15T16:40:23;10.50;99.90
52509;DHT22;38420;53.150;6.370;2022-11-15T16:42:49;10.60;99.90
52509;DHT22;38420;53.150;6.370;2022-11-15T16:45:15;10.60;99.90
52509;DHT22;38420;53.150;6.370;2022-11-15T16:47:41;10.60;99.90
52509;DHT22;38420;53.150;6.370;2022-11-15T16:50:21;10.60;99.90
52509;DHT22;38420;53.150;6.370;2022-11-15T16:52:55;10.70;99.90
52509;DHT22;38420;53.150;6.370;2022-11-15T16:55:23;10.70;99.90
52509;DHT22;38420;53.150;6.370;2022-11-15T16:57:49;10.70;99.90
52509;DHT22;38420;53.150;6.370;2022-11-15T17:00:17;10.80;99.90
52509;DHT22;38420;53.150;6.370;2022-11-15T17:02:47;10.70;99.90
52509;DHT22;38420;53.150;6.370;2022-11-15T17:05:14;10.70;99.90
52509;DHT22;38420;53.150;6.370;2022-11-15T17:07:41;10.80;99.90
52509;DHT22;38420;53.150;6.370;2022-11-15T17:10:08;10.90;99.90
52509;DHT22;38420;53.150;6.370;2022-11-15T17:12:35;10.90;99.90
52509;DHT22;38420;53.150;6.370;2022-11-15T17:15:01;10.80;99.90
52509;DHT22;38420;53.150;6.370;2022-11-15T17:17:29;10.90;99.90
52509;DHT22;38420;53.150;6.370;2022-11-15T17:19:54;10.90;99.90
52509;DHT22;38420;53.150;6.370;2022-11-15T17:22:20;10.90;99.90
52509;DHT22;38420;53.150;6.370;2022-11-15T17:24:45;10.90;99.90
52509;DHT22;38420;53.150;6.370;2022-11-15T17:27:11;10.90;99.90
52509;DHT22;38420;53.150;6.370;2022-11-15T17:29:37;10.90;99.90
52509;DHT22;38420;53.150;6.370;2022-11-15T17:32:02;10.90;99.90
52509;DHT22;38420;53.150;6.370;2022-11-15T17:34:28;10.90;99.90
52509;DHT22;38420;53.150;6.370;2022-11-15T17:36:54;10.90;99.90
52509;DHT22;38420;53.150;6.370;2022-11-15T17:39:20;10.80;99.90